Time;durP1;ratioP1;P1;durP2;ratioP2;P2;SDS_P1;SDS_P2;PMS_P1;PMS_P2;Temp;Humidity;BMP_temperature;BMP_pressure;BME280_temperature;BME280_humidity;BME280_pressure;Samples;Min_cycle;Max_cycle;Signal;HPM_P1;HPM_P2
2022/04/05 00:00:06;;;;;;;13.75;8.90;;;22.40;97.00;;;;;;4178105;28;20423;-72
2022/04/05 00:02:11;;;;;;;17.23;10.48;;;22.50;96.80;;;;;;4177169;28;20049;-71
2022/04/05 00:04:18;;;;;;;13.85;9.02;;;22.60;96.70;;;;;;4158169;28;20041;-72
2022/04/05 00:06:24;;;;;;;12.82;9.40;;;22.60;96.30;;;;;;4178579;28;20111;-72
2022/04/05 00:08:29;;;;;;;13.20;9.23;;;22.50;96.50;;;;;;4177522;28;20132;-72
2022/04/05 00:10:36;;;;;;;12.38;9.32;;;22.70;96.40;;;;;;4179179;28;20048;-72
2022/04/05 00:12:43;;;;;;;12.43;8.27;;;22.70;96.20;;;;;;4177987;28;20044;-72
2022/04/05 00:14:48;;;;;;;10.65;8.18;;;22.70;96.30;;;;;;4178827;28;20698;-73
2022/04/05 00:16:52;;;;;;;14.35;8.32;;;22.80;96.10;;;;;;4159766;28;20125;-70
2022/04/05 00:18:57;;;;;;;10.63;7.70;;;22.70;96.00;;;;;;4178758;28;20154;-69
2022/04/05 00:21:01;;;;;;;12.10;8.25;;;22.80;96.00;;;;;;4178990;28;20048;-73
2022/04/05 00:23:06;;;;;;;13.63;8.25;;;22.80;95.90;;;;;;4162408;28;20142;-72
2022/04/05 00:25:12;;;;;;;13.15;7.85;;;22.80;95.70;;;;;;4179054;28;20041;-72
2022/04/05 00:27:17;;;;;;;11.60;8.32;;;22.90;95.40;;;;;;4175950;28;20059;-72
2022/04/05 00:29:24;;;;;;;10.90;7.57;;;22.90;94.90;;;;;;4157908;28;20512;-72
2022/04/05 00:31:30;;;;;;;13.27;7.57;;;23.00;95.00;;;;;;4178725;28;20048;-72
2022/04/05 00:33:35;;;;;;;11.30;7.40;;;23.10;94.90;;;;;;4162100;28;20041;-73
2022/04/05 00:35:41;;;;;;;11.43;7.05;;;23.10;95.00;;;;;;4178196;28;20041;-71
2022/04/05 00:37:46;;;;;;;10.98;6.97;;;23.20;94.60;;;;;;4129140;28;20046;-70
2022/04/05 00:39:53;;;;;;;11.63;6.93;;;23.30;94.50;;;;;;4179220;28;20053;-72
2022/04/05 00:42:02;;;;;;;10.75;7.15;;;23.20;94.50;;;;;;4147121;28;20118;-73
2022/04/05 00:44:06;;;;;;;11.55;8.30;;;23.10;94.40;;;;;;4175558;28;20041;-72
2022/04/05 00:46:11;;;;;;;13.30;8.15;;;23.20;94.60;;;;;;4178075;28;20408;-71
2022/04/05 00:48:30;;;;;;;9.00;6.97;;;23.10;94.60;;;;;;4165669;28;20488;-72
2022/04/05 00:50:37;;;;;;;13.15;7.43;;;23.10;94.70;;;;;;4174851;28;20064;-73
2022/04/05 00:52:42;;;;;;;9.43;7.05;;;23.10;94.80;;;;;;4163918;28;20497;-74
2022/04/05 00:54:49;;;;;;;10.07;7.25;;;23.20;94.50;;;;;;4176737;28;20060;-73
2022/04/05 00:56:57;;;;;;;10.65;6.40;;;23.30;94.40;;;;;;4162431;28;20053;-74
2022/04/05 00:59:02;;;;;;;9.80;6.45;;;23.30;94.50;;;;;;4142431;28;20791;-73
2022/04/05 01:01:15;;;;;;;11.13;6.43;;;23.40;94.60;;;;;;4174798;28;20511;-73
2022/04/05 01:03:22;;;;;;;8.35;6.65;;;23.50;94.30;;;;;;4174717;28;20136;-75
2022/04/05 01:05:28;;;;;;;9.27;6.30;;;23.50;94.20;;;;;;4163778;28;20429;-73
2022/04/05 01:07:34;;;;;;;12.00;7.47;;;23.40;94.10;;;;;;4178752;28;20127;-74
2022/04/05 01:09:40;;;;;;;9.90;6.78;;;23.40;94.50;;;;;;4181897;28;20037;-72
2022/04/05 01:11:45;;;;;;;10.50;6.90;;;23.60;94.30;;;;;;4166058;28;20198;-70
2022/04/05 01:13:52;;;;;;;12.60;6.45;;;23.50;94.20;;;;;;4173582;28;20566;-75
2022/04/05 01:15:59;;;;;;;9.60;6.85;;;23.60;93.90;;;;;;4180361;28;20462;-74
2022/04/05 01:18:03;;;;;;;9.38;6.50;;;23.90;94.10;;;;;;4170417;28;20373;-74
2022/04/05 01:20:09;;;;;;;8.23;5.60;;;23.70;93.90;;;;;;4176513;28;20077;-76
2022/04/05 01:22:15;;;;;;;10.20;6.13;;;23.60;93.60;;;;;;4175724;28;20055;-72
2022/04/05 01:24:20;;;;;;;12.02;6.38;;;23.80;93.90;;;;;;4184091;28;20128;-72
2022/04/05 01:26:25;;;;;;;7.72;6.32;;;24.00;94.30;;;;;;4178550;28;20183;-73
2022/04/05 01:28:29;;;;;;;9.35;6.22;;;24.10;93.40;;;;;;4140684;28;20052;-72
2022/04/05 01:30:34;;;;;;;7.28;5.22;;;24.10;93.40;;;;;;4177040;28;20072;-73
2022/04/05 01:32:41;;;;;;;8.65;5.55;;;24.20;93.10;;;;;;4172152;28;20045;-73
2022/04/05 01:34:47;;;;;;;10.35;6.45;;;24.30;93.10;;;;;;4174215;28;20488;-73
2022/04/05 01:36:54;;;;;;;11.52;6.00;;;24.20;93.00;;;;;;4157209;28;20129;-73
2022/04/05 01:39:01;;;;;;;9.40;5.93;;;24.20;93.40;;;;;;4176011;28;20124;-76
2022/04/05 01:41:07;;;;;;;5.57;4.20;;;24.20;93.40;;;;;;4193059;28;20053;-75
2022/04/05 01:43:12;;;;;;;7.10;4.97;;;24.10;92.70;;;;;;4157638;28;20033;-74
2022/04/05 01:45:18;;;;;;;7.80;4.88;;;24.20;92.80;;;;;;4175752;28;20879;-74
2022/04/05 01:47:25;;;;;;;9.00;4.63;;;24.30;92.80;;;;;;4177252;28;20036;-73
2022/04/05 01:49:30;;;;;;;7.35;4.00;;;24.40;92.30;;;;;;4175118;28;20526;-74
2022/04/05 01:51:35;;;;;;;5.65;4.40;;;24.50;92.10;;;;;;4143584;28;20057;-74
2022/04/05 01:53:42;;;;;;;8.05;3.97;;;24.60;92.30;;;;;;4158888;28;20107;-74
2022/04/05 01:55:47;;;;;;;5.22;3.75;;;24.70;92.40;;;;;;4176298;28;20092;-73
2022/04/05 01:57:51;;;;;;;7.85;4.15;;;24.80;91.80;;;;;;4176544;28;20128;-73
2022/04/05 01:59:58;;;;;;;10.25;4.07;;;24.70;91.40;;;;;;4174681;28;20048;-74
2022/04/05 02:02:13;;;;;;;6.90;4.63;;;24.70;91.70;;;;;;4156560;28;20120;-73
2022/04/05 02:04:20;;;;;;;5.78;3.75;;;24.60;92.00;;;;;;4176529;28;20136;-73
2022/04/05 02:06:27;;;;;;;5.97;4.25;;;24.80;91.70;;;;;;4176330;28;20049;-73
2022/04/05 02:08:32;;;;;;;6.35;3.92;;;24.80;92.00;;;;;;4114012;28;20035;-75
2022/04/05 02:10:38;;;;;;;6.65;4.00;;;24.80;91.50;;;;;;4129524;28;20081;-76
2022/04/05 02:12:45;;;;;;;6.47;3.80;;;24.80;91.50;;;;;;4125662;28;20089;-74
2022/04/05 02:15:09;;;;;;;5.18;3.88;;;24.90;91.10;;;;;;4108698;28;20039;-74
2022/04/05 02:17:25;;;;;;;9.02;4.30;;;24.90;91.40;;;;;;4118003;28;20053;-75
2022/04/05 02:19:34;;;;;;;8.65;4.45;;;25.10;91.10;;;;;;4115983;28;20069;-73
2022/04/05 02:21:39;;;;;;;7.80;4.47;;;25.00;91.60;;;;;;4125598;28;20121;-77
2022/04/05 02:23:44;;;;;;;6.95;4.68;;;24.90;91.30;;;;;;4125735;28;20050;-74
2022/04/05 02:25:53;;;;;;;8.57;4.43;;;24.90;91.50;;;;;;4126040;28;20080;-73
2022/04/05 02:28:02;;;;;;;7.72;4.68;;;25.10;91.40;;;;;;4124583;28;20046;-74
2022/04/05 02:30:16;;;;;;;9.85;4.45;;;25.40;91.60;;;;;;4125473;28;20050;-74
2022/04/05 02:32:28;;;;;;;6.95;4.40;;;25.30;91.80;;;;;;4109681;28;20458;-74
2022/04/05 02:34:32;;;;;;;8.48;4.88;;;25.30;91.20;;;;;;4126486;28;20051;-74
2022/04/05 02:36:39;;;;;;;7.78;4.85;;;25.40;91.30;;;;;;4142260;28;20060;-74
2022/04/05 02:38:50;;;;;;;7.75;4.40;;;25.50;91.50;;;;;;4128322;28;20038;-74
2022/04/05 02:40:57;;;;;;;8.25;4.60;;;25.60;91.20;;;;;;4174576;28;20052;-73
2022/04/05 02:43:06;;;;;;;6.93;4.40;;;25.70;91.40;;;;;;4158790;28;20100;-72
2022/04/05 02:45:14;;;;;;;5.97;4.38;;;25.80;91.20;;;;;;4175433;28;20037;-72
2022/04/05 02:47:20;;;;;;;7.32;4.40;;;25.90;91.00;;;;;;4159253;28;20049;-71
2022/04/05 02:49:28;;;;;;;7.93;4.35;;;25.90;91.00;;;;;;4160100;28;20056;-72
2022/04/05 02:51:34;;;;;;;5.00;3.55;;;26.00;90.70;;;;;;4159647;28;20049;-72
2022/04/05 02:53:48;;;;;;;4.88;3.40;;;26.10;90.80;;;;;;4157598;28;20061;-72
2022/04/05 02:55:54;;;;;;;6.13;3.63;;;26.10;90.20;;;;;;4177343;28;20073;-72
2022/04/05 02:58:02;;;;;;;4.47;2.85;;;26.20;90.30;;;;;;4158907;28;20140;-72
2022/04/05 03:00:15;;;;;;;4.68;2.90;;;26.30;89.80;;;;;;4159197;28;20049;-72
2022/04/05 03:02:25;;;;;;;4.60;3.25;;;26.30;90.00;;;;;;4176113;28;20644;-72
2022/04/05 03:04:36;;;;;;;5.88;3.10;;;26.40;90.20;;;;;;4191757;28;20111;-72
2022/04/05 03:06:43;;;;;;;6.68;3.42;;;26.40;89.20;;;;;;4159298;28;20124;-72
2022/04/05 03:08:56;;;;;;;4.05;2.58;;;26.50;88.70;;;;;;4177569;28;20049;-73
2022/04/05 03:11:05;;;;;;;4.28;2.95;;;26.40;87.20;;;;;;4159556;28;20068;-72
2022/04/05 03:13:10;;;;;;;13.85;9.13;;;26.40;88.20;;;;;;4159726;28;20129;-69
2022/04/05 03:15:18;;;;;;;24.80;14.27;;;26.40;88.80;;;;;;4159835;28;20120;-72
2022/04/05 03:17:24;;;;;;;17.88;10.73;;;26.40;88.30;;;;;;4159557;28;20045;-74
2022/04/05 03:19:29;;;;;;;12.68;6.80;;;26.50;88.90;;;;;;4159990;28;20045;-72
2022/04/05 03:21:36;;;;;;;9.02;5.07;;;26.60;89.10;;;;;;4159731;28;20119;-70
2022/04/05 03:23:41;;;;;;;5.57;3.40;;;26.70;89.70;;;;;;4177478;28;20086;-72
2022/04/05 03:25:48;;;;;;;4.88;2.65;;;26.90;89.50;;;;;;4176918;28;20099;-72
2022/04/05 03:27:59;;;;;;;3.65;2.55;;;26.90;88.60;;;;;;4157606;28;20077;-72
2022/04/05 03:30:05;;;;;;;4.82;3.30;;;27.00;88.20;;;;;;4159537;28;20677;-72
2022/04/05 03:32:11;;;;;;;4.85;3.25;;;27.00;88.10;;;;;;4176972;28;20423;-72
2022/04/05 03:34:17;;;;;;;4.28;2.70;;;27.00;88.80;;;;;;4159469;28;20075;-70
2022/04/05 03:36:24;;;;;;;5.05;2.40;;;27.10;88.80;;;;;;4159664;28;20073;-71
2022/04/05 03:38:29;;;;;;;3.33;2.30;;;27.20;88.10;;;;;;4159317;28;20049;-71
2022/04/05 03:40:36;;;;;;;4.97;2.20;;;27.30;87.40;;;;;;4159668;28;20037;-70
2022/04/05 03:42:45;;;;;;;3.15;2.45;;;27.30;87.10;;;;;;4159302;28;20050;-70
2022/04/05 03:44:50;;;;;;;8.10;2.92;;;27.40;87.40;;;;;;4162568;28;20497;-73
2022/04/05 03:47:00;;;;;;;2.90;2.10;;;27.40;86.90;;;;;;4162573;28;20113;-70
2022/04/05 03:49:08;;;;;;;5.50;3.08;;;27.40;86.70;;;;;;4162136;28;20049;-71
2022/04/05 03:51:17;;;;;;;5.05;3.40;;;27.50;86.50;;;;;;4160043;28;20049;-70
2022/04/05 03:53:32;;;;;;;3.42;2.50;;;27.50;87.50;;;;;;4154473;28;20061;-71
2022/04/05 03:55:45;;;;;;;6.18;2.50;;;27.60;85.60;;;;;;4159825;28;20045;-71
2022/04/05 03:57:50;;;;;;;4.63;2.55;;;27.60;85.80;;;;;;4159118;28;20128;-72
2022/04/05 03:59:58;;;;;;;4.50;2.50;;;27.60;85.70;;;;;;4161119;28;20060;-70
2022/04/05 04:02:06;;;;;;;3.83;2.10;;;27.60;84.20;;;;;;4177894;28;20041;-70
2022/04/05 04:04:12;;;;;;;3.45;2.30;;;27.70;84.50;;;;;;4157567;28;20530;-70
2022/04/05 04:06:19;;;;;;;4.55;2.40;;;27.70;85.40;;;;;;4178018;28;20041;-70
2022/04/05 04:08:26;;;;;;;3.92;2.50;;;27.80;84.10;;;;;;4158153;28;20053;-70
2022/04/05 04:10:31;;;;;;;5.93;2.50;;;27.80;86.10;;;;;;4159176;28;20145;-70
2022/04/05 04:12:40;;;;;;;3.05;2.17;;;27.90;84.00;;;;;;4152732;28;20045;-71
2022/04/05 04:14:47;;;;;;;4.10;2.40;;;27.90;83.00;;;;;;4188582;28;20064;-73
2022/04/05 04:16:55;;;;;;;5.57;2.20;;;28.00;83.60;;;;;;4144818;28;20108;-71
2022/04/05 04:19:01;;;;;;;5.43;2.42;;;28.00;84.10;;;;;;4160071;28;20049;-71
2022/04/05 04:21:10;;;;;;;3.53;2.40;;;28.10;83.50;;;;;;4143953;28;20092;-70
2022/04/05 04:23:17;;;;;;;7.47;2.42;;;28.10;83.50;;;;;;4153120;28;20080;-72
2022/04/05 04:25:28;;;;;;;4.70;2.60;;;28.10;82.20;;;;;;4138101;28;20053;-70
2022/04/05 04:27:34;;;;;;;4.20;2.58;;;28.00;81.90;;;;;;4125868;28;20050;-72
2022/04/05 04:29:39;;;;;;;6.43;2.83;;;28.10;82.70;;;;;;4173497;28;20446;-71
2022/04/05 04:31:44;;;;;;;3.45;2.60;;;28.20;81.30;;;;;;4184399;28;20049;-71
2022/04/05 04:33:51;;;;;;;3.40;2.55;;;28.20;82.30;;;;;;4183547;28;20055;-70
2022/04/05 04:35:56;;;;;;;4.97;2.88;;;28.20;83.60;;;;;;4182079;28;20044;-70
2022/04/05 04:38:03;;;;;;;3.38;2.67;;;28.30;83.30;;;;;;4108526;28;20055;-71
2022/04/05 04:40:11;;;;;;;3.50;2.67;;;28.30;81.80;;;;;;4125908;28;20093;-71
2022/04/05 04:42:15;;;;;;;3.72;2.70;;;28.40;82.40;;;;;;4127520;28;20046;-72
2022/04/05 04:44:22;;;;;;;3.33;2.42;;;28.50;81.80;;;;;;4127071;28;20555;-72
2022/04/05 04:46:27;;;;;;;3.45;2.72;;;28.40;80.70;;;;;;4126853;28;20038;-70
2022/04/05 04:48:32;;;;;;;4.90;3.17;;;28.30;81.80;;;;;;4126593;28;20077;-70
2022/04/05 04:50:39;;;;;;;5.30;2.83;;;28.50;82.80;;;;;;4141742;28;20206;-71
2022/04/05 04:52:44;;;;;;;3.35;2.80;;;28.50;81.80;;;;;;4123410;28;20049;-70
2022/04/05 04:54:50;;;;;;;4.68;2.90;;;28.60;80.30;;;;;;4125854;28;20081;-69
2022/04/05 04:56:57;;;;;;;4.85;3.10;;;28.50;81.60;;;;;;4125492;28;20046;-69
2022/04/05 04:59:03;;;;;;;3.50;2.67;;;28.60;82.10;;;;;;4127042;28;20441;-69
2022/04/05 05:01:08;;;;;;;6.75;3.08;;;28.70;82.10;;;;;;4110121;28;20411;-70
2022/04/05 05:03:18;;;;;;;4.35;3.08;;;28.80;80.60;;;;;;4127466;28;20096;-69
2022/04/05 05:05:23;;;;;;;5.90;3.42;;;28.80;80.80;;;;;;4126940;28;20133;-70
2022/04/05 05:07:30;;;;;;;4.82;3.28;;;28.80;80.70;;;;;;4127108;28;20512;-70
2022/04/05 05:09:37;;;;;;;4.20;3.17;;;28.80;80.90;;;;;;4149619;28;20049;-70
2022/04/05 05:11:44;;;;;;;5.15;3.15;;;28.90;81.20;;;;;;4178491;28;20102;-70
2022/04/05 05:13:49;;;;;;;5.75;3.15;;;28.90;80.00;;;;;;4160134;28;20492;-70
2022/04/05 05:15:55;;;;;;;3.65;3.08;;;29.00;80.60;;;;;;4158912;28;20475;-71
2022/04/05 05:18:02;;;;;;;7.55;3.28;;;29.00;80.80;;;;;;4176808;28;20053;-69
2022/04/05 05:20:07;;;;;;;8.43;3.33;;;28.80;79.20;;;;;;4176763;28;20048;-68
2022/04/05 05:22:14;;;;;;;4.57;3.22;;;28.80;81.40;;;;;;4175006;28;20444;-70
2022/04/05 05:24:19;;;;;;;5.03;3.40;;;28.90;80.30;;;;;;4183982;28;20112;-69
2022/04/05 05:26:23;;;;;;;5.50;3.50;;;29.00;80.40;;;;;;4177542;28;20041;-69
2022/04/05 05:28:30;;;;;;;4.80;3.25;;;29.00;79.90;;;;;;4178334;28;20041;-69
2022/04/05 05:30:36;;;;;;;4.63;3.38;;;29.00;80.80;;;;;;4179101;28;20098;-70
2022/04/05 05:32:49;;;;;;;8.45;3.40;;;29.20;81.40;;;;;;4177608;28;20054;-70
2022/04/05 05:34:53;;;;;;;;;;;29.20;80.30;;;;;;4145066;28;20452;-70
2022/04/05 05:37:00;;;;;;;4.90;3.40;;;29.10;80.00;;;;;;4174794;28;19978;-70
2022/04/05 05:39:04;;;;;;;4.88;3.13;;;29.20;80.80;;;;;;4174598;28;20065;-71
2022/04/05 05:41:11;;;;;;;4.47;3.33;;;29.20;81.00;;;;;;4176545;28;20478;-72
2022/04/05 05:43:18;;;;;;;4.80;2.97;;;29.20;81.00;;;;;;4161129;28;20044;-72
2022/04/05 05:45:23;;;;;;;5.88;3.58;;;29.30;80.80;;;;;;4144146;28;20552;-71
2022/04/05 05:47:30;;;;;;;8.18;3.25;;;29.40;80.70;;;;;;4160586;28;20061;-70
2022/04/05 05:49:39;;;;;;;7.63;3.45;;;29.40;81.70;;;;;;4142770;28;20177;-72
2022/04/05 05:51:44;;;;;;;7.22;3.42;;;29.50;79.80;;;;;;4177790;28;20672;-70
2022/04/05 05:53:51;;;;;;;7.78;3.60;;;29.50;79.70;;;;;;4178141;28;20041;-71
2022/04/05 05:55:56;;;;;;;6.00;3.70;;;29.50;79.40;;;;;;4177038;28;20045;-70
2022/04/05 05:58:02;;;;;;;3.92;3.35;;;29.30;79.90;;;;;;4177593;28;20056;-71
2022/04/05 06:00:09;;;;;;;5.63;3.47;;;29.30;80.40;;;;;;4160582;28;20132;-71
2022/04/05 06:02:19;;;;;;;7.40;3.33;;;29.30;80.40;;;;;;4168945;28;20115;-71
2022/04/05 06:04:23;;;;;;;4.05;2.97;;;29.40;80.20;;;;;;4176717;28;20040;-71
2022/04/05 06:06:31;;;;;;;3.95;3.55;;;29.50;80.60;;;;;;4158473;28;20052;-70
2022/04/05 06:08:37;;;;;;;5.53;3.05;;;29.50;79.80;;;;;;4145016;28;20053;-71
2022/04/05 06:10:41;;;;;;;4.78;3.60;;;29.50;80.10;;;;;;4177333;28;20135;-71
2022/04/05 06:12:49;;;;;;;5.50;3.55;;;29.60;80.10;;;;;;4175580;28;20095;-71
2022/04/05 06:14:56;;;;;;;3.78;3.42;;;29.60;80.90;;;;;;4176220;28;20076;-71
2022/04/05 06:17:00;;;;;;;5.32;3.85;;;29.60;78.60;;;;;;4160082;28;20153;-71
2022/04/05 06:19:07;;;;;;;5.18;2.97;;;29.60;79.30;;;;;;4157250;28;20034;-71
2022/04/05 06:21:19;;;;;;;6.05;3.90;;;29.60;79.50;;;;;;4160063;28;20053;-71
2022/04/05 06:23:34;;;;;;;4.53;3.40;;;29.70;79.50;;;;;;4160550;28;20041;-72
2022/04/05 06:25:45;;;;;;;5.80;3.58;;;29.90;78.80;;;;;;4151537;28;20557;-71
2022/04/05 06:27:58;;;;;;;6.28;3.78;;;29.80;79.40;;;;;;4177325;28;20899;-70
2022/04/05 06:30:04;;;;;;;7.18;3.50;;;29.80;79.10;;;;;;4177509;28;20037;-70
2022/04/05 06:32:11;;;;;;;6.40;3.40;;;29.80;79.70;;;;;;4159704;28;20124;-71
2022/04/05 06:34:17;;;;;;;5.88;3.90;;;29.70;79.70;;;;;;4175886;28;20056;-70
2022/04/05 06:36:22;;;;;;;5.93;3.70;;;29.80;79.20;;;;;;4159475;28;20068;-71
2022/04/05 06:38:28;;;;;;;5.15;3.58;;;29.80;79.40;;;;;;4158974;28;20536;-71
2022/04/05 06:40:37;;;;;;;6.60;3.70;;;29.90;79.10;;;;;;4187938;28;20132;-71
2022/04/05 06:42:44;;;;;;;5.47;3.78;;;30.00;79.40;;;;;;4176832;28;20508;-70
2022/04/05 06:44:52;;;;;;;4.63;3.55;;;30.10;78.40;;;;;;4176763;28;20052;-71
2022/04/05 06:47:00;;;;;;;5.43;4.03;;;30.10;79.40;;;;;;4177063;28;20056;-71
2022/04/05 06:49:05;;;;;;;5.80;3.72;;;30.10;79.20;;;;;;4177052;28;20403;-71
2022/04/05 06:51:13;;;;;;;4.70;3.92;;;30.20;79.10;;;;;;4176226;28;20091;-70
2022/04/05 06:53:19;;;;;;;5.72;4.20;;;30.00;78.30;;;;;;4174030;28;20080;-71
2022/04/05 06:55:24;;;;;;;5.07;3.63;;;30.00;78.70;;;;;;4177542;28;20062;-71
2022/04/05 06:57:29;;;;;;;7.10;3.63;;;30.10;79.80;;;;;;4159061;28;20076;-72
2022/04/05 06:59:37;;;;;;;5.53;3.42;;;30.20;79.30;;;;;;4177161;28;20090;-70
2022/04/05 07:01:41;;;;;;;4.15;3.58;;;30.30;78.70;;;;;;4142942;28;20428;-71
2022/04/05 07:03:46;;;;;;;4.55;3.58;;;30.30;78.60;;;;;;4157856;28;20449;-70
2022/04/05 07:05:58;;;;;;;6.85;3.80;;;30.40;79.00;;;;;;4177672;28;20095;-71
2022/04/05 07:08:03;;;;;;;6.72;3.90;;;30.50;78.70;;;;;;4189366;28;20529;-71
2022/04/05 07:10:10;;;;;;;5.20;3.42;;;30.60;79.10;;;;;;4157299;28;20083;-72
2022/04/05 07:12:17;;;;;;;5.13;3.88;;;30.70;78.80;;;;;;4126967;28;20580;-71
2022/04/05 07:14:23;;;;;;;4.82;3.72;;;30.70;78.90;;;;;;4158461;28;20136;-71
2022/04/05 07:16:30;;;;;;;4.72;3.13;;;30.60;77.60;;;;;;4153629;28;20542;-71
2022/04/05 07:18:37;;;;;;;4.20;3.40;;;30.60;77.70;;;;;;4138689;28;20078;-71
2022/04/05 07:20:41;;;;;;;6.10;4.15;;;30.70;78.00;;;;;;4162940;28;20739;-72
2022/04/05 07:22:53;;;;;;;7.13;3.90;;;30.70;77.60;;;;;;4158137;28;20076;-71
2022/04/05 07:24:58;;;;;;;8.15;3.78;;;30.70;78.00;;;;;;4161596;28;20453;-71
2022/04/05 07:27:03;;;;;;;4.50;3.72;;;30.70;76.90;;;;;;4129622;28;20421;-72
2022/04/05 07:29:10;;;;;;;7.50;3.45;;;30.80;77.70;;;;;;4160776;28;20041;-70
2022/04/05 07:31:16;;;;;;;6.22;3.55;;;30.70;77.50;;;;;;4179612;28;20040;-71
2022/04/05 07:33:25;;;;;;;5.03;3.55;;;30.80;77.90;;;;;;4131727;28;20035;-71
2022/04/05 07:35:30;;;;;;;5.65;3.40;;;30.80;77.90;;;;;;4178539;28;20132;-71
2022/04/05 07:37:35;;;;;;;3.80;3.38;;;30.80;77.40;;;;;;4144602;28;20113;-71
2022/04/05 07:39:42;;;;;;;4.18;3.17;;;30.90;78.40;;;;;;4165946;28;20044;-71
2022/04/05 07:41:46;;;;;;;7.10;3.65;;;30.90;77.50;;;;;;4192924;28;20047;-71
2022/04/05 07:43:51;;;;;;;4.60;3.42;;;30.80;76.80;;;;;;4164894;28;20041;-71
2022/04/05 07:45:56;;;;;;;4.93;3.47;;;30.80;78.30;;;;;;4179278;28;20061;-70
2022/04/05 07:48:01;;;;;;;5.68;3.17;;;30.80;77.70;;;;;;4161994;28;20049;-71
2022/04/05 07:50:06;;;;;;;4.80;3.53;;;30.90;77.90;;;;;;4161256;28;20404;-70
2022/04/05 07:52:14;;;;;;;5.03;3.28;;;30.90;77.40;;;;;;4179640;28;20051;-71
2022/04/05 07:54:21;;;;;;;5.07;3.33;;;30.90;77.30;;;;;;4161634;28;20060;-71
2022/04/05 07:56:25;;;;;;;3.58;3.10;;;30.70;76.90;;;;;;4177986;28;20045;-71
2022/04/05 07:58:33;;;;;;;5.95;3.15;;;30.80;78.20;;;;;;4162409;28;20037;-69
2022/04/05 08:01:20;;;;;;;6.82;3.60;;;30.90;77.20;;;;;;4101672;28;20097;-70
2022/04/05 08:03:28;;;;;;;3.95;3.05;;;30.80;77.50;;;;;;4111657;28;20707;-70
2022/04/05 08:06:08;;;;;;;4.53;3.45;;;30.80;77.40;;;;;;4112606;28;20773;-71
2022/04/05 08:11:26;;;;;;;4.80;2.80;;;30.80;76.80;;;;;;4047431;29;20051;-70
2022/04/05 08:13:30;;;;;;;4.57;3.03;;;30.80;77.20;;;;;;4034146;29;20057;-71
2022/04/05 08:15:39;;;;;;;3.67;2.60;;;30.90;77.10;;;;;;4033913;29;20047;-72
2022/04/05 08:17:46;;;;;;;4.05;2.88;;;31.00;77.10;;;;;;4032013;29;20526;-71
2022/04/05 08:19:52;;;;;;;7.03;2.90;;;30.90;77.30;;;;;;4034071;29;20049;-70
2022/04/05 08:21:59;;;;;;;5.43;3.13;;;30.90;77.40;;;;;;4040789;29;20251;-70
2022/04/05 08:24:13;;;;;;;8.25;3.13;;;30.80;77.00;;;;;;4045958;29;20147;-71
2022/04/05 08:26:18;;;;;;;5.60;3.13;;;30.80;77.20;;;;;;4032053;29;20052;-71
2022/04/05 08:28:36;;;;;;;3.30;2.80;;;30.80;76.30;;;;;;4047108;29;20249;-70
2022/04/05 08:31:10;;;;;;;4.88;3.00;;;30.80;77.30;;;;;;4031646;29;20052;-71
2022/04/05 08:33:15;;;;;;;3.33;2.90;;;30.80;76.70;;;;;;4045913;29;20044;-70
2022/04/05 08:35:20;;;;;;;4.00;2.80;;;30.90;77.00;;;;;;4033626;29;20045;-71
2022/04/05 08:37:25;;;;;;;5.30;3.10;;;30.90;77.50;;;;;;4031582;29;20143;-71
2022/04/05 08:39:29;;;;;;;4.85;3.33;;;31.00;77.70;;;;;;4126438;28;20041;-71
2022/04/05 08:41:35;;;;;;;5.00;3.08;;;31.00;77.40;;;;;;4178959;28;20041;-71
2022/04/05 08:43:43;;;;;;;3.63;2.80;;;31.00;76.90;;;;;;4179075;28;20041;-71
2022/04/05 08:45:58;;;;;;;4.70;2.38;;;31.10;76.90;;;;;;4161559;28;20056;-71
2022/04/05 08:48:05;;;;;;;5.25;2.90;;;31.10;77.30;;;;;;4176203;28;20045;-70
2022/04/05 08:50:15;;;;;;;4.28;2.55;;;31.20;76.80;;;;;;4178724;28;20045;-70
2022/04/05 08:52:19;;;;;;;7.47;3.00;;;31.10;76.30;;;;;;4178892;28;20051;-70
2022/04/05 08:54:24;;;;;;;6.25;3.10;;;31.00;77.20;;;;;;4176311;28;20098;-70
2022/04/05 08:56:30;;;;;;;4.75;2.97;;;31.00;77.40;;;;;;4174896;28;20116;-69
2022/04/05 08:58:35;;;;;;;7.20;2.90;;;31.00;77.10;;;;;;4176979;28;20053;-71
2022/04/05 09:00:41;;;;;;;3.97;3.28;;;31.00;76.60;;;;;;4152173;28;20412;-71
2022/04/05 09:03:05;;;;;;;5.03;3.10;;;31.00;76.50;;;;;;4174352;28;20041;-70
2022/04/05 09:05:10;;;;;;;4.70;2.80;;;31.00;76.20;;;;;;4175220;28;20053;-71
2022/04/05 09:07:26;;;;;;;6.28;2.83;;;31.00;77.10;;;;;;4104643;28;20114;-71
2022/04/05 09:09:33;;;;;;;4.90;2.60;;;31.00;76.20;;;;;;4109404;28;20187;-71
2022/04/05 09:11:44;;;;;;;3.38;2.40;;;31.00;76.60;;;;;;4112105;28;20055;-71
2022/04/05 09:13:59;;;;;;;4.95;2.80;;;30.90;76.10;;;;;;4115321;28;20053;-70
2022/04/05 09:16:08;;;;;;;4.50;2.58;;;30.80;76.40;;;;;;4109932;28;20074;-72
2022/04/05 09:18:12;;;;;;;5.03;2.60;;;30.90;77.40;;;;;;4110019;28;20047;-70
2022/04/05 09:20:20;;;;;;;3.72;2.70;;;30.90;76.10;;;;;;4122348;28;20038;-71
2022/04/05 09:22:32;;;;;;;3.33;2.30;;;30.80;76.40;;;;;;4122389;28;20661;-72
2022/04/05 09:24:43;;;;;;;4.13;2.40;;;30.90;76.00;;;;;;4101722;28;20089;-69
2022/04/05 09:26:50;;;;;;;3.67;2.55;;;30.90;76.30;;;;;;4108691;28;20050;-71
2022/04/05 09:28:58;;;;;;;3.47;2.38;;;30.90;77.00;;;;;;4111840;28;20062;-71
2022/04/05 09:31:04;;;;;;;3.65;2.60;;;30.90;76.70;;;;;;4111281;28;20607;-72
2022/04/05 09:33:12;;;;;;;3.88;2.53;;;30.90;76.90;;;;;;4111482;28;20371;-71
2022/04/05 09:35:18;;;;;;;3.63;2.58;;;30.90;77.10;;;;;;4121398;28;20880;-71
2022/04/05 09:37:28;;;;;;;3.42;2.40;;;30.90;76.60;;;;;;4110474;28;20157;-71
2022/04/05 09:39:34;;;;;;;5.00;2.97;;;30.80;76.50;;;;;;4176032;28;20151;-71
2022/04/05 09:41:41;;;;;;;5.00;2.50;;;30.80;76.60;;;;;;4175421;28;20037;-71
2022/04/05 09:43:59;;;;;;;4.63;2.35;;;30.80;75.90;;;;;;4176605;28;20060;-71
2022/04/05 09:46:06;;;;;;;5.05;2.70;;;30.80;77.70;;;;;;4158355;28;20045;-70
2022/04/05 09:48:13;;;;;;;5.07;2.60;;;30.80;76.90;;;;;;4159619;28;20045;-70
2022/04/05 09:50:18;;;;;;;4.55;2.70;;;30.80;76.50;;;;;;4176370;28;20060;-71
2022/04/05 09:52:32;;;;;;;5.65;2.55;;;30.70;76.90;;;;;;4177162;28;20053;-72
2022/04/05 09:54:38;;;;;;;6.05;2.83;;;30.70;76.70;;;;;;4143130;28;20056;-71
2022/04/05 09:56:44;;;;;;;3.33;2.38;;;30.70;76.70;;;;;;4158237;28;20099;-71
2022/04/05 09:58:51;;;;;;;4.82;2.80;;;30.70;76.90;;;;;;4177052;28;20044;-71
2022/04/05 10:01:17;;;;;;;3.70;2.25;;;30.70;77.10;;;;;;4141016;28;20089;-71
2022/04/05 10:03:21;;;;;;;3.95;2.15;;;30.60;76.70;;;;;;4155281;28;20045;-72
2022/04/05 10:05:29;;;;;;;3.55;2.45;;;30.60;77.30;;;;;;4174636;28;20033;-72
2022/04/05 10:07:36;;;;;;;3.88;2.72;;;30.60;77.60;;;;;;4162444;28;20077;-73
2022/04/05 10:09:40;;;;;;;5.88;2.72;;;30.60;76.80;;;;;;4163269;28;20069;-73
2022/04/05 10:11:47;;;;;;;4.05;2.65;;;30.60;76.80;;;;;;4158602;28;20073;-73
2022/04/05 10:13:53;;;;;;;4.35;2.65;;;30.60;76.80;;;;;;4175526;28;20037;-73
2022/04/05 10:16:00;;;;;;;4.50;2.80;;;30.50;77.10;;;;;;4178620;28;20056;-73
2022/04/05 10:18:11;;;;;;;4.57;2.72;;;30.50;77.00;;;;;;4177622;28;20095;-74
2022/04/05 10:20:17;;;;;;;4.97;2.70;;;30.50;77.00;;;;;;4178009;28;20383;-74
2022/04/05 10:22:22;;;;;;;3.88;2.75;;;30.60;77.30;;;;;;4161058;28;20056;-73
2022/04/05 10:24:29;;;;;;;7.40;2.80;;;30.50;77.20;;;;;;4186805;28;20087;-73
2022/04/05 10:26:38;;;;;;;6.00;2.78;;;30.60;77.20;;;;;;4176540;28;20128;-73
2022/04/05 10:28:44;;;;;;;7.05;2.90;;;30.50;77.90;;;;;;4178162;28;20045;-73
2022/04/05 10:31:01;;;;;;;6.90;3.47;;;30.50;77.50;;;;;;4144557;28;20077;-73
2022/04/05 10:33:08;;;;;;;14.90;4.65;;;30.50;77.50;;;;;;4161815;28;20088;-72
2022/04/05 10:35:13;;;;;;;7.72;3.97;;;30.40;77.90;;;;;;4185481;28;20594;-71
2022/04/05 10:37:29;;;;;;;11.55;6.65;;;30.40;77.80;;;;;;4168482;28;20034;-71
2022/04/05 10:39:37;;;;;;;8.85;4.50;;;30.40;77.90;;;;;;4160936;28;20045;-71
2022/04/05 10:41:43;;;;;;;9.73;4.72;;;30.40;78.00;;;;;;4158647;28;20136;-72
2022/04/05 10:44:02;;;;;;;12.30;4.85;;;30.40;77.80;;;;;;4143725;28;20427;-72
2022/04/05 10:46:09;;;;;;;12.25;5.22;;;30.30;77.80;;;;;;4157566;28;20049;-71
2022/04/05 10:48:16;;;;;;;9.57;4.53;;;30.30;78.10;;;;;;4166539;28;20041;-72
2022/04/05 10:50:28;;;;;;;7.75;3.70;;;30.30;77.90;;;;;;4144752;28;20551;-72
2022/04/05 10:52:37;;;;;;;6.38;3.58;;;30.30;77.80;;;;;;4161806;28;20046;-72
2022/04/05 10:54:51;;;;;;;6.32;3.50;;;30.20;78.20;;;;;;4146996;28;20054;-71
2022/04/05 10:57:17;;;;;;;5.90;3.70;;;30.20;78.30;;;;;;4174425;28;20044;-72
2022/04/05 10:59:22;;;;;;;6.63;4.05;;;30.10;78.60;;;;;;4147156;28;20041;-72
2022/04/05 11:01:43;;;;;;;6.38;4.00;;;30.10;78.80;;;;;;4160766;28;20064;-72
2022/04/05 11:04:20;;;;;;;5.55;4.07;;;30.00;79.30;;;;;;4176296;28;20428;-71
2022/04/05 11:06:25;;;;;;;6.43;3.92;;;30.00;79.40;;;;;;4163682;28;20045;-72